createdAt,value
2023-12-30T00:00:18.068Z,7.65
2023-12-30T00:02:49.182Z,7.66
2023-12-30T00:05:17.266Z,7.69
2023-12-30T00:07:45.499Z,7.70
2023-12-30T00:10:13.067Z,7.71
2023-12-30T00:12:40.315Z,7.75
2023-12-30T00:15:08.644Z,7.80
2023-12-30T00:17:36.025Z,7.80
2023-12-30T00:20:03.664Z,7.84
2023-12-30T00:22:30.894Z,7.83
2023-12-30T00:24:58.170Z,7.93
2023-12-30T00:27:25.729Z,7.87
2023-12-30T00:29:52.907Z,7.89
2023-12-30T00:32:20.144Z,7.92
2023-12-30T00:34:47.409Z,7.95
2023-12-30T00:37:20.044Z,7.98
2023-12-30T00:39:48.313Z,7.97
2023-12-30T00:42:15.717Z,7.95
2023-12-30T00:44:43.099Z,7.97
2023-12-30T00:47:10.303Z,8.03
2023-12-30T00:49:37.584Z,8.05
2023-12-30T00:52:05.333Z,8.05
2023-12-30T00:54:38.326Z,8.11
2023-12-30T00:57:11.776Z,8.07
2023-12-30T00:59:38.990Z,8.06
2023-12-30T01:02:06.239Z,8.06
2023-12-30T01:04:33.573Z,8.06
2023-12-30T01:07:00.826Z,8.05
2023-12-30T01:09:28.090Z,8.05
2023-12-30T01:11:55.318Z,8.07
2023-12-30T01:14:22.621Z,8.04
2023-12-30T01:16:49.819Z,8.12
2023-12-30T01:19:17.109Z,8.12
2023-12-30T01:21:44.335Z,8.13
2023-12-30T01:24:11.557Z,8.17
2023-12-30T01:26:40.013Z,8.10
2023-12-30T01:29:07.279Z,8.13
2023-12-30T01:31:35.563Z,8.05
2023-12-30T01:34:02.918Z,8.10
2023-12-30T01:36:31.736Z,8.10
2023-12-30T01:38:58.923Z,8.09
2023-12-30T01:41:26.073Z,8.15
2023-12-30T01:43:53.395Z,8.12
2023-12-30T01:46:20.751Z,8.08
2023-12-30T01:48:48.346Z,8.05
2023-12-30T01:51:24.613Z,8.04
2023-12-30T01:53:57.003Z,7.99
2023-12-30T01:56:26.147Z,7.97
2023-12-30T01:58:53.867Z,7.95
2023-12-30T02:01:28.657Z,7.92
2023-12-30T02:03:57.038Z,7.97
2023-12-30T02:06:24.484Z,7.90
2023-12-30T02:08:51.885Z,7.89
2023-12-30T02:11:19.590Z,7.91
2023-12-30T02:13:46.994Z,7.88
2023-12-30T02:16:14.389Z,7.86
2023-12-30T02:18:41.717Z,7.92
2023-12-30T02:21:08.986Z,7.89
2023-12-30T02:23:36.533Z,7.84
2023-12-30T02:26:07.143Z,7.85
2023-12-30T02:28:35.182Z,7.86
2023-12-30T02:31:02.818Z,7.89
2023-12-30T02:33:30.225Z,7.83
2023-12-30T02:35:57.447Z,7.86
2023-12-30T02:38:24.731Z,7.89
2023-12-30T02:40:51.965Z,7.82
2023-12-30T02:43:19.243Z,7.92
2023-12-30T02:45:46.527Z,7.91
2023-12-30T02:48:13.835Z,7.87
2023-12-30T02:50:41.104Z,7.75
2023-12-30T02:53:08.260Z,7.73
2023-12-30T02:55:36.025Z,7.71
2023-12-30T02:58:03.552Z,7.67
2023-12-30T03:00:30.891Z,7.60
2023-12-30T03:02:58.174Z,7.57
2023-12-30T03:05:25.414Z,7.52
2023-12-30T03:07:52.698Z,7.55
2023-12-30T03:10:20.022Z,7.48
2023-12-30T03:12:47.278Z,7.56
2023-12-30T03:15:14.539Z,7.47
2023-12-30T03:17:41.851Z,7.48
2023-12-30T03:20:11.236Z,7.54
2023-12-30T03:22:39.063Z,7.56
2023-12-30T03:25:07.711Z,7.53
2023-12-30T03:27:34.920Z,7.56
2023-12-30T03:30:02.208Z,7.47
2023-12-30T03:32:29.817Z,7.46
2023-12-30T03:34:57.482Z,7.44
2023-12-30T03:37:24.780Z,7.44
2023-12-30T03:39:53.196Z,7.38
2023-12-30T03:42:20.778Z,7.41
2023-12-30T03:44:48.179Z,7.40
2023-12-30T03:47:15.472Z,7.37
2023-12-30T03:49:42.867Z,7.37
2023-12-30T03:52:10.317Z,7.31
2023-12-30T03:54:37.640Z,7.34
2023-12-30T03:57:05.162Z,7.30
2023-12-30T03:59:32.456Z,7.37
2023-12-30T04:01:59.811Z,7.38
2023-12-30T04:04:27.140Z,7.39
2023-12-30T04:06:54.430Z,7.35
2023-12-30T04:09:21.728Z,7.30
2023-12-30T04:11:48.953Z,7.30
2023-12-30T04:14:16.146Z,7.33
2023-12-30T04:16:43.364Z,7.26
2023-12-30T04:19:10.759Z,7.27
2023-12-30T04:21:38.001Z,7.29
2023-12-30T04:24:05.749Z,7.25
2023-12-30T04:26:32.944Z,7.22
2023-12-30T04:29:00.780Z,7.18
2023-12-30T04:31:28.123Z,7.15
2023-12-30T04:33:55.386Z,7.15
2023-12-30T04:36:22.607Z,7.14
2023-12-30T04:38:49.904Z,7.10
2023-12-30T04:41:17.340Z,7.05
2023-12-30T04:43:44.596Z,7.05
2023-12-30T04:46:13.270Z,6.99
2023-12-30T04:48:40.544Z,7.01
2023-12-30T04:51:07.903Z,6.93
2023-12-30T04:53:35.120Z,6.93
2023-12-30T04:56:02.431Z,6.86
2023-12-30T04:58:29.794Z,6.87
2023-12-30T05:00:58.107Z,6.90
2023-12-30T05:03:25.453Z,6.88
2023-12-30T05:05:52.839Z,6.94
2023-12-30T05:08:20.388Z,6.83
2023-12-30T05:10:48.151Z,6.78
2023-12-30T05:13:15.572Z,6.79
2023-12-30T05:15:42.929Z,6.80
2023-12-30T05:18:12.884Z,6.85
2023-12-30T05:20:40.097Z,6.76
2023-12-30T05:23:07.396Z,6.84
2023-12-30T05:25:35.077Z,6.84
2023-12-30T05:28:02.346Z,6.77
2023-12-30T05:30:30.028Z,6.85
2023-12-30T05:32:57.351Z,6.87
2023-12-30T05:35:24.626Z,6.83
2023-12-30T05:37:52.366Z,6.78
2023-12-30T05:40:19.876Z,6.80
2023-12-30T05:42:49.354Z,6.84
2023-12-30T05:45:16.764Z,6.85
2023-12-30T05:47:44.403Z,6.79
2023-12-30T05:50:14.907Z,6.77
2023-12-30T05:52:42.137Z,6.70
2023-12-30T05:55:09.583Z,6.71
2023-12-30T05:57:36.816Z,6.77
2023-12-30T06:00:05.571Z,6.76
2023-12-30T06:02:32.787Z,6.78
2023-12-30T06:05:00.196Z,6.74
2023-12-30T06:07:27.458Z,6.86
2023-12-30T06:09:54.854Z,6.78
2023-12-30T06:12:22.168Z,6.81
2023-12-30T06:14:49.922Z,6.79
2023-12-30T06:17:17.141Z,6.80
2023-12-30T06:19:45.359Z,6.86
2023-12-30T06:22:12.853Z,6.86
2023-12-30T06:24:40.097Z,6.84
2023-12-30T06:27:07.422Z,6.85
2023-12-30T06:29:34.664Z,6.86
2023-12-30T06:32:01.950Z,6.88
2023-12-30T06:34:29.237Z,6.83
2023-12-30T06:36:56.540Z,6.90
2023-12-30T06:39:24.142Z,6.88
2023-12-30T06:41:51.390Z,6.86
2023-12-30T06:44:18.826Z,6.91
2023-12-30T06:46:46.046Z,6.90
2023-12-30T06:49:13.430Z,6.89
2023-12-30T06:51:43.734Z,6.83
2023-12-30T06:54:11.003Z,6.95
2023-12-30T06:56:38.400Z,6.94
2023-12-30T06:59:05.791Z,6.87
2023-12-30T07:01:33.314Z,6.92
2023-12-30T07:04:00.597Z,6.93
2023-12-30T07:06:27.821Z,6.94
2023-12-30T07:08:55.089Z,6.93
2023-12-30T07:11:22.291Z,6.87
2023-12-30T07:13:49.539Z,6.94
2023-12-30T07:16:17.108Z,6.95
2023-12-30T07:18:44.495Z,6.91
2023-12-30T07:21:12.147Z,6.92
2023-12-30T07:23:39.596Z,6.90
2023-12-30T07:26:06.897Z,6.93
2023-12-30T07:28:34.123Z,6.92
2023-12-30T07:31:01.473Z,6.93
2023-12-30T07:33:29.121Z,6.88
2023-12-30T07:35:57.617Z,6.91
2023-12-30T07:38:24.899Z,6.88
2023-12-30T07:40:52.386Z,6.94
2023-12-30T07:43:19.738Z,6.93
2023-12-30T07:45:46.966Z,6.92
2023-12-30T07:48:14.235Z,6.94
2023-12-30T07:50:41.507Z,6.93
2023-12-30T07:53:09.601Z,6.93
2023-12-30T07:55:37.049Z,6.98
2023-12-30T07:58:04.424Z,7.00
2023-12-30T08:00:31.616Z,6.95
2023-12-30T08:02:58.965Z,6.99
2023-12-30T08:05:26.308Z,7.04
2023-12-30T08:07:53.535Z,7.09
2023-12-30T08:10:20.869Z,7.14
2023-12-30T08:12:48.229Z,7.10
2023-12-30T08:15:15.610Z,7.17
2023-12-30T08:17:43.070Z,7.20
2023-12-30T08:20:11.302Z,7.25
2023-12-30T08:22:38.594Z,7.23
2023-12-30T08:25:07.112Z,7.29
2023-12-30T08:27:34.453Z,7.35
2023-12-30T08:30:01.821Z,7.37
2023-12-30T08:32:29.183Z,7.36
2023-12-30T08:34:58.024Z,7.37
2023-12-30T08:37:25.488Z,7.44
2023-12-30T08:39:52.879Z,7.43
2023-12-30T08:42:20.569Z,7.48
2023-12-30T08:44:47.747Z,7.62
2023-12-30T08:47:16.519Z,7.73
2023-12-30T08:49:43.847Z,7.94
2023-12-30T08:52:11.862Z,8.15
2023-12-30T08:54:41.075Z,8.10
2023-12-30T08:57:08.367Z,8.08
2023-12-30T08:59:35.653Z,7.89
2023-12-30T09:02:04.069Z,7.93
2023-12-30T09:04:32.049Z,7.94
2023-12-30T09:06:59.474Z,7.99
2023-12-30T09:09:26.915Z,7.95
2023-12-30T09:11:54.145Z,7.93
2023-12-30T09:14:21.344Z,8.04
2023-12-30T09:16:48.736Z,8.01
2023-12-30T09:19:16.147Z,8.02
2023-12-30T09:21:43.382Z,8.07
2023-12-30T09:24:10.686Z,7.99
2023-12-30T09:26:38.277Z,7.96
2023-12-30T09:29:05.608Z,7.98
2023-12-30T09:31:32.836Z,7.94
2023-12-30T09:34:00.299Z,7.94
2023-12-30T09:36:29.356Z,7.94
2023-12-30T09:38:56.631Z,8.02
2023-12-30T09:41:27.476Z,7.94
2023-12-30T09:43:55.851Z,8.01
2023-12-30T09:46:25.186Z,8.08
2023-12-30T09:48:55.945Z,9.24
2023-12-30T09:51:23.547Z,9.29
2023-12-30T09:53:50.816Z,8.96
2023-12-30T09:56:20.138Z,8.16
2023-12-30T09:58:47.661Z,8.15
2023-12-30T10:01:15.696Z,8.15
2023-12-30T10:03:43.687Z,8.14
2023-12-30T10:06:15.446Z,8.15
2023-12-30T10:08:43.734Z,8.17
2023-12-30T10:11:12.087Z,8.15
2023-12-30T10:13:40.004Z,8.25
2023-12-30T10:16:07.796Z,8.29
2023-12-30T10:18:39.890Z,8.31
2023-12-30T10:21:08.080Z,8.26
2023-12-30T10:23:35.969Z,8.29
2023-12-30T10:26:04.644Z,8.34
2023-12-30T10:28:32.010Z,8.37
2023-12-30T10:31:07.723Z,8.38
2023-12-30T10:33:37.168Z,8.36
2023-12-30T10:36:08.660Z,8.32
2023-12-30T10:38:39.634Z,8.37
2023-12-30T10:41:06.856Z,8.29
2023-12-30T10:43:34.220Z,8.27
2023-12-30T10:46:04.202Z,8.28
2023-12-30T10:48:38.850Z,8.35
2023-12-30T10:51:07.451Z,8.36
2023-12-30T10:53:45.666Z,8.35
2023-12-30T10:56:24.939Z,8.32
2023-12-30T10:58:55.575Z,8.35
2023-12-30T11:01:23.359Z,8.39
2023-12-30T11:03:50.692Z,8.32
2023-12-30T11:06:34.087Z,8.41
2023-12-30T11:09:12.165Z,8.41
2023-12-30T11:11:57.468Z,8.43
2023-12-30T11:14:25.579Z,8.48
2023-12-30T11:16:53.027Z,8.40
2023-12-30T11:19:32.560Z,8.38
2023-12-30T11:22:03.052Z,8.48
2023-12-30T11:24:30.983Z,8.48
2023-12-30T11:26:58.984Z,8.55
2023-12-30T11:29:30.472Z,8.54
2023-12-30T11:32:00.317Z,8.56
2023-12-30T11:34:28.199Z,8.55
2023-12-30T11:37:00.294Z,8.61
2023-12-30T11:39:33.133Z,8.68
2023-12-30T11:42:02.291Z,8.66
2023-12-30T11:44:29.884Z,8.74
2023-12-30T11:46:57.958Z,8.73
2023-12-30T11:49:27.187Z,8.71
2023-12-30T11:52:06.030Z,8.73
2023-12-30T11:54:34.320Z,8.78
2023-12-30T11:57:02.213Z,8.74
2023-12-30T11:59:30.493Z,8.69
2023-12-30T12:02:15.426Z,8.82
2023-12-30T12:04:43.829Z,8.81
2023-12-30T12:07:12.227Z,8.84
2023-12-30T12:09:41.596Z,8.80
2023-12-30T12:12:09.925Z,9.05
2023-12-30T12:14:38.115Z,8.91
2023-12-30T12:17:08.228Z,8.93
2023-12-30T12:19:38.788Z,8.91
2023-12-30T12:22:06.468Z,8.88
2023-12-30T12:24:33.811Z,8.90
2023-12-30T12:27:01.299Z,8.77
2023-12-30T12:29:28.552Z,8.78
2023-12-30T12:31:57.236Z,8.70
2023-12-30T12:34:26.928Z,8.68
2023-12-30T12:36:54.844Z,8.68
2023-12-30T12:39:22.023Z,8.73
2023-12-30T12:41:49.724Z,8.75
2023-12-30T12:44:17.320Z,8.74
2023-12-30T12:46:44.649Z,8.81
2023-12-30T12:49:12.542Z,8.83
2023-12-30T12:51:40.408Z,8.78
2023-12-30T12:54:07.838Z,8.86
2023-12-30T12:56:35.686Z,8.83
2023-12-30T12:59:02.878Z,9.38
2023-12-30T13:01:30.363Z,9.19
2023-12-30T13:03:59.428Z,8.99
2023-12-30T13:06:26.822Z,8.88
2023-12-30T13:08:57.147Z,8.83
2023-12-30T13:11:28.287Z,8.91
2023-12-30T13:13:56.269Z,9.03
2023-12-30T13:16:25.331Z,9.17
2023-12-30T13:18:54.133Z,9.13
2023-12-30T13:21:21.396Z,9.21
2023-12-30T13:23:51.135Z,9.23
2023-12-30T13:26:19.717Z,9.29
2023-12-30T13:28:47.333Z,9.21
2023-12-30T13:31:19.010Z,9.25
2023-12-30T13:33:46.609Z,9.17
2023-12-30T13:36:14.050Z,8.99
2023-12-30T13:38:44.751Z,9.09
2023-12-30T13:41:12.054Z,9.06
2023-12-30T13:43:39.335Z,9.14
2023-12-30T13:46:24.912Z,9.05
2023-12-30T13:49:10.375Z,9.02
2023-12-30T13:51:43.484Z,8.91
2023-12-30T13:54:11.107Z,8.90
2023-12-30T13:56:43.175Z,8.83
2023-12-30T13:59:12.258Z,8.80
2023-12-30T14:01:39.990Z,8.86
2023-12-30T14:04:08.774Z,8.85
2023-12-30T14:06:41.279Z,8.82
2023-12-30T14:09:27.433Z,8.77
2023-12-30T14:12:01.980Z,8.77
2023-12-30T14:14:36.402Z,8.76
2023-12-30T14:17:03.713Z,8.77
2023-12-30T14:19:31.022Z,8.75
2023-12-30T14:21:58.463Z,8.70
2023-12-30T14:24:25.770Z,8.65
2023-12-30T14:26:53.027Z,8.62
2023-12-30T14:29:20.363Z,8.67
2023-12-30T14:31:48.692Z,8.64
2023-12-30T14:34:16.115Z,8.59
2023-12-30T14:36:43.398Z,8.60
2023-12-30T14:39:16.654Z,8.58
2023-12-30T14:41:43.882Z,8.61
2023-12-30T14:44:11.081Z,8.49
2023-12-30T14:46:38.480Z,8.52
2023-12-30T14:49:08.693Z,8.62
2023-12-30T14:51:36.226Z,8.58
2023-12-30T14:54:05.062Z,8.52
2023-12-30T14:56:38.415Z,8.53
2023-12-30T14:59:05.630Z,8.55
2023-12-30T15:01:33.372Z,8.56
2023-12-30T15:04:03.182Z,8.55
2023-12-30T15:06:31.295Z,8.43
2023-12-30T15:08:59.901Z,8.35
2023-12-30T15:11:28.696Z,8.46
2023-12-30T15:13:56.313Z,8.40
2023-12-30T15:16:23.727Z,8.38
2023-12-30T15:18:51.184Z,8.38
2023-12-30T15:21:18.441Z,8.39
2023-12-30T15:23:45.693Z,8.32
2023-12-30T15:26:12.889Z,8.28
2023-12-30T15:28:40.222Z,8.35
2023-12-30T15:31:08.054Z,8.32
2023-12-30T15:33:35.661Z,8.33
2023-12-30T15:36:06.292Z,8.35
2023-12-30T15:38:33.577Z,8.27
2023-12-30T15:41:01.465Z,8.33
2023-12-30T15:43:30.847Z,8.29
2023-12-30T15:45:58.933Z,8.24
2023-12-30T15:48:26.416Z,8.28
2023-12-30T15:50:54.012Z,8.29
2023-12-30T15:53:21.340Z,8.31
2023-12-30T15:55:49.098Z,8.22
2023-12-30T15:58:16.524Z,8.32
2023-12-30T16:00:43.776Z,8.33
2023-12-30T16:03:12.865Z,8.19
2023-12-30T16:05:41.746Z,7.89
2023-12-30T16:08:10.821Z,7.89
2023-12-30T16:10:38.233Z,7.73
2023-12-30T16:13:08.235Z,7.72
2023-12-30T16:15:37.883Z,7.86
2023-12-30T16:18:07.530Z,7.76
2023-12-30T16:20:35.008Z,8.00
2023-12-30T16:23:05.255Z,8.12
2023-12-30T16:25:33.217Z,7.95
2023-12-30T16:28:00.907Z,8.08
2023-12-30T16:30:28.447Z,8.14
2023-12-30T16:32:55.938Z,7.83
2023-12-30T16:35:23.260Z,7.96
2023-12-30T16:37:52.965Z,7.78
2023-12-30T16:40:21.287Z,7.81
2023-12-30T16:42:48.649Z,7.78
2023-12-30T16:45:16.035Z,7.99
2023-12-30T16:47:43.909Z,8.13
2023-12-30T16:50:11.236Z,8.17
2023-12-30T16:52:38.852Z,8.16
2023-12-30T16:55:12.017Z,8.19
2023-12-30T16:57:39.579Z,8.15
2023-12-30T17:00:10.918Z,8.19
2023-12-30T17:02:38.881Z,8.24
2023-12-30T17:05:06.957Z,8.20
2023-12-30T17:07:34.681Z,8.21
2023-12-30T17:10:02.711Z,8.18
2023-12-30T17:12:30.041Z,8.20
2023-12-30T17:14:57.230Z,8.15
2023-12-30T17:17:24.435Z,8.16
2023-12-30T17:19:51.600Z,8.18
2023-12-30T17:22:18.881Z,8.17
2023-12-30T17:24:46.168Z,8.21
2023-12-30T17:27:13.580Z,8.21
2023-12-30T17:29:40.982Z,8.23
2023-12-30T17:32:10.615Z,8.21
2023-12-30T17:34:37.939Z,8.28
2023-12-30T17:37:05.372Z,8.31
2023-12-30T17:39:32.607Z,8.19
2023-12-30T17:42:02.048Z,8.34
2023-12-30T17:44:30.147Z,8.34
2023-12-30T17:46:57.679Z,8.36
2023-12-30T17:49:25.189Z,8.36
2023-12-30T17:51:52.456Z,8.41
2023-12-30T17:54:19.683Z,8.43
2023-12-30T17:56:46.876Z,8.38
2023-12-30T17:59:14.092Z,8.40
2023-12-30T18:01:41.961Z,8.29
2023-12-30T18:04:12.641Z,8.34
2023-12-30T18:06:39.959Z,8.42
2023-12-30T18:09:07.220Z,8.39
2023-12-30T18:11:37.345Z,8.33
2023-12-30T18:14:04.536Z,8.23
2023-12-30T18:16:31.809Z,8.25
2023-12-30T18:18:59.201Z,8.32
2023-12-30T18:21:26.457Z,8.38
2023-12-30T18:23:53.666Z,8.49
2023-12-30T18:26:21.321Z,8.40
2023-12-30T18:28:51.457Z,8.42
2023-12-30T18:31:18.681Z,8.49
2023-12-30T18:33:46.564Z,8.48
2023-12-30T18:36:13.812Z,8.51
2023-12-30T18:38:41.369Z,8.39
2023-12-30T18:41:08.591Z,8.47
2023-12-30T18:43:35.930Z,8.51
2023-12-30T18:46:03.345Z,8.39
2023-12-30T18:48:30.670Z,8.48
2023-12-30T18:50:58.047Z,8.49
2023-12-30T18:53:25.261Z,8.37
2023-12-30T18:55:53.051Z,8.27
2023-12-30T18:58:21.070Z,8.38
2023-12-30T19:00:50.263Z,8.51
2023-12-30T19:03:17.522Z,8.50
2023-12-30T19:05:44.848Z,8.55
2023-12-30T19:08:12.370Z,8.46
2023-12-30T19:10:39.609Z,8.48
2023-12-30T19:13:07.374Z,8.43
2023-12-30T19:15:34.849Z,8.43
2023-12-30T19:18:02.348Z,8.43
2023-12-30T19:20:29.759Z,8.42
2023-12-30T19:22:56.984Z,8.43
2023-12-30T19:25:24.344Z,8.45
2023-12-30T19:27:52.667Z,8.37
2023-12-30T19:30:19.929Z,8.45
2023-12-30T19:32:47.515Z,8.36
2023-12-30T19:35:15.178Z,8.43
2023-12-30T19:37:44.154Z,8.47
2023-12-30T19:40:12.109Z,8.37
2023-12-30T19:42:40.141Z,8.31
2023-12-30T19:45:11.250Z,8.38
2023-12-30T19:47:40.318Z,8.40
2023-12-30T19:50:08.220Z,8.36
2023-12-30T19:52:35.407Z,8.33
2023-12-30T19:55:03.758Z,8.32
2023-12-30T19:57:31.450Z,8.28
2023-12-30T19:59:58.867Z,8.32
2023-12-30T20:02:26.074Z,8.26
2023-12-30T20:04:53.314Z,8.22
2023-12-30T20:07:20.578Z,8.28
2023-12-30T20:09:47.796Z,8.25
2023-12-30T20:12:14.971Z,8.17
2023-12-30T20:14:42.164Z,8.13
2023-12-30T20:17:09.334Z,8.13
2023-12-30T20:19:37.087Z,8.12
2023-12-30T20:22:04.472Z,8.00
2023-12-30T20:24:31.699Z,8.12
2023-12-30T20:26:59.225Z,8.09
2023-12-30T20:29:26.482Z,7.95
2023-12-30T20:31:57.039Z,7.98
2023-12-30T20:34:25.563Z,8.11
2023-12-30T20:36:53.766Z,7.96
2023-12-30T20:39:20.950Z,8.01
2023-12-30T20:41:48.292Z,7.91
2023-12-30T20:44:15.495Z,8.02
2023-12-30T20:46:43.986Z,8.05
2023-12-30T20:49:11.395Z,7.98
2023-12-30T20:51:38.621Z,7.89
2023-12-30T20:54:05.908Z,7.98
2023-12-30T20:56:33.204Z,8.02
2023-12-30T20:59:00.405Z,7.99
2023-12-30T21:01:30.774Z,7.96
2023-12-30T21:03:58.852Z,7.98
2023-12-30T21:06:28.140Z,7.95
2023-12-30T21:08:55.343Z,7.86
2023-12-30T21:11:22.882Z,7.86
2023-12-30T21:13:50.276Z,7.75
2023-12-30T21:16:18.570Z,7.92
2023-12-30T21:18:47.624Z,7.89
2023-12-30T21:21:14.941Z,7.78
2023-12-30T21:23:42.187Z,7.84
2023-12-30T21:26:09.550Z,7.90
2023-12-30T21:28:38.302Z,7.79
2023-12-30T21:31:05.567Z,7.88
2023-12-30T21:33:32.947Z,7.80
2023-12-30T21:36:00.531Z,7.67
2023-12-30T21:38:28.340Z,7.78
2023-12-30T21:40:55.812Z,7.77
2023-12-30T21:43:23.418Z,7.68
2023-12-30T21:45:52.584Z,7.76
2023-12-30T21:48:20.240Z,7.65
2023-12-30T21:50:47.580Z,7.70
2023-12-30T21:53:14.876Z,7.68
2023-12-30T21:55:43.597Z,7.76
2023-12-30T21:58:10.939Z,7.73
2023-12-30T22:00:40.689Z,7.73
2023-12-30T22:03:08.560Z,7.68
2023-12-30T22:05:36.388Z,7.68
2023-12-30T22:08:04.082Z,7.65
2023-12-30T22:10:32.205Z,7.61
2023-12-30T22:12:59.480Z,7.59
2023-12-30T22:15:26.947Z,7.59
2023-12-30T22:17:54.237Z,7.50
2023-12-30T22:20:21.545Z,7.57
2023-12-30T22:22:48.764Z,7.64
2023-12-30T22:25:16.061Z,7.50
2023-12-30T22:27:43.265Z,7.58
2023-12-30T22:30:11.114Z,7.49
2023-12-30T22:32:38.393Z,7.31
2023-12-30T22:35:14.139Z,7.52
2023-12-30T22:37:42.979Z,7.50
2023-12-30T22:40:10.865Z,7.40
2023-12-30T22:42:39.086Z,7.49
2023-12-30T22:45:07.407Z,7.53
2023-12-30T22:47:36.798Z,7.43
2023-12-30T22:50:07.969Z,7.53
2023-12-30T22:52:37.001Z,7.50
2023-12-30T22:55:04.822Z,7.34
2023-12-30T22:57:32.176Z,7.43
2023-12-30T23:00:00.780Z,7.35
2023-12-30T23:02:27.987Z,7.47
2023-12-30T23:04:55.298Z,7.44
2023-12-30T23:07:22.586Z,7.45
2023-12-30T23:09:49.800Z,7.41
2023-12-30T23:12:17.503Z,7.39
2023-12-30T23:14:44.960Z,7.34
2023-12-30T23:17:15.775Z,7.36
2023-12-30T23:19:44.409Z,7.25
2023-12-30T23:22:11.888Z,7.31
2023-12-30T23:24:39.418Z,6.85
2023-12-30T23:27:06.610Z,6.88
2023-12-30T23:29:34.258Z,6.78
2023-12-30T23:32:01.492Z,6.88
2023-12-30T23:34:38.546Z,6.71
2023-12-30T23:37:10.305Z,6.79
2023-12-30T23:39:37.548Z,6.61
2023-12-30T23:42:05.243Z,6.65
2023-12-30T23:44:32.522Z,6.64
2023-12-30T23:46:59.722Z,6.60
2023-12-30T23:49:26.934Z,6.74
2023-12-30T23:51:54.132Z,6.61
2023-12-30T23:54:21.342Z,6.76
2023-12-30T23:56:48.524Z,6.66
2023-12-30T23:59:18.336Z,6.64
